KMEM/MEM METAR and TAF weather

Enter ICAO airport designator
Station Type Date Time Source
KMEM METAR 2021/05/14 22:54 UTC NOAA

KMEM 142254Z VRB03KT 10SM CLR 23/03 A3021 RMK AO2 SLP229 T02280028 $


Station Type Date Time Source
KMEM Decoded METAR 2021/05/14 22:54 UTC NOAA

MEMPHIS INTERNATIONAL AIRPORT , TN, United States (KMEM) 35-02N 089-59W 86M
May 14, 2021 - 06:54 PM EDT / 2021.05.14 2254 UTC
Wind: Variable at 3 MPH (3 KT):0
Visibility: 10 mile(s):0
Sky conditions: clear
Temperature: 73.0 F (22.8 C)
Dew Point: 37.0 F (2.8 C)
Relative Humidity: 26%
Pressure (altimeter): 30.21 in. Hg (1023 hPa)
ob: KMEM 142254Z VRB03KT 10SM CLR 23/03 A3021 RMK AO2 SLP229 T02280028
cycle: 23

Station Type Date Time Source
KMEM TAF 2021/05/14 21:54 UTC NOAA

TAF
AMD KMEM 142051Z 1421/1524 12004KT P6SM FEW150
FM151500 18008KT P6SM FEW150
FM151900 19010KT P6SM FEW050

Example: see airport list